Time;durP1;ratioP1;P1;durP2;ratioP2;P2;SDS_P1;SDS_P2;PMS_P1;PMS_P2;Temp;Humidity;BMP_temperature;BMP_pressure;BME280_temperature;BME280_humidity;BME280_pressure;Samples;Min_cycle;Max_cycle;Signal;HPM_P1;HPM_P2
2023/09/25 00:02:03;;;;;;;4.47;3.10;;;7.40;99.90;;;;;;5053412;28;20274;-69
2023/09/25 00:04:28;;;;;;;5.80;2.50;;;7.30;99.90;;;;;;5033642;28;20190;-68
2023/09/25 00:06:54;;;;;;;3.50;2.30;;;7.30;99.90;;;;;;5048628;28;20211;-69
2023/09/25 00:09:20;;;;;;;3.30;2.20;;;7.20;99.90;;;;;;5052384;28;20222;-69
2023/09/25 00:11:45;;;;;;;8.93;2.40;;;7.20;99.90;;;;;;5053166;28;20193;-69
2023/09/25 00:14:11;;;;;;;5.57;2.30;;;7.20;99.90;;;;;;5053100;28;20241;-69
2023/09/25 00:16:38;;;;;;;8.77;2.20;;;7.10;99.90;;;;;;5052942;28;20369;-69
2023/09/25 00:19:04;;;;;;;4.83;2.27;;;7.10;99.90;;;;;;5051277;28;20221;-68
2023/09/25 00:21:30;;;;;;;6.53;2.40;;;7.10;99.90;;;;;;5051835;28;20183;-69
2023/09/25 00:23:56;;;;;;;7.87;2.50;;;7.10;99.90;;;;;;5051777;28;20634;-69
2023/09/25 00:26:21;;;;;;;4.83;2.50;;;7.10;99.90;;;;;;5051444;28;20217;-69
2023/09/25 00:28:47;;;;;;;3.17;2.00;;;7.00;99.90;;;;;;5050951;28;20595;-69
2023/09/25 00:31:12;;;;;;;5.67;2.30;;;7.00;99.90;;;;;;5051391;28;20202;-68
2023/09/25 00:33:38;;;;;;;4.00;2.13;;;7.00;99.90;;;;;;5051665;28;20213;-68
2023/09/25 00:36:05;;;;;;;3.40;2.00;;;7.00;99.90;;;;;;5051230;28;20214;-68
2023/09/25 00:38:31;;;;;;;2.73;1.90;;;7.00;99.90;;;;;;5050646;28;20567;-69
2023/09/25 00:40:57;;;;;;;3.43;1.90;;;7.00;99.90;;;;;;5051524;28;20275;-69
2023/09/25 00:43:22;;;;;;;2.67;2.00;;;7.00;99.90;;;;;;5042087;28;20274;-69
2023/09/25 00:45:49;;;;;;;2.60;1.90;;;7.00;99.90;;;;;;5051212;28;20209;-68
2023/09/25 00:48:26;;;;;;;4.27;1.70;;;7.00;99.90;;;;;;5050442;28;20214;-68
2023/09/25 00:50:57;;;;;;;3.43;2.00;;;7.00;99.90;;;;;;5051421;28;20195;-68
2023/09/25 00:53:24;;;;;;;5.80;1.80;;;7.00;99.90;;;;;;5050998;28;20206;-68
2023/09/25 00:55:51;;;;;;;2.93;1.93;;;6.90;99.90;;;;;;5051341;28;20628;-69
2023/09/25 00:58:17;;;;;;;2.70;1.90;;;6.90;99.90;;;;;;5048498;28;20198;-68
2023/09/25 01:00:43;;;;;;;2.97;1.90;;;6.90;99.90;;;;;;5044943;28;20191;-69
2023/09/25 01:03:08;;;;;;;4.73;1.80;;;6.90;99.90;;;;;;5051130;28;20244;-68
2023/09/25 01:05:38;;;;;;;3.57;2.07;;;6.80;99.90;;;;;;5051151;28;20203;-68
2023/09/25 01:08:05;;;;;;;5.50;1.70;;;6.80;99.90;;;;;;5050297;28;20675;-68
2023/09/25 01:10:31;;;;;;;4.20;1.97;;;6.80;99.90;;;;;;5050975;28;20678;-68
2023/09/25 01:12:59;;;;;;;2.57;2.00;;;6.80;99.90;;;;;;5051095;28;20657;-69
2023/09/25 01:15:26;;;;;;;2.27;1.73;;;6.80;99.90;;;;;;5050784;28;20643;-68
2023/09/25 01:17:51;;;;;;;2.97;1.83;;;6.80;99.90;;;;;;5000743;28;1060686;-68
2023/09/25 01:20:18;;;;;;;2.93;1.90;;;6.80;99.90;;;;;;5041442;28;20183;-68
2023/09/25 01:22:50;;;;;;;3.70;2.10;;;6.70;99.90;;;;;;5051768;28;20266;-69
2023/09/25 01:25:18;;;;;;;3.30;2.03;;;6.70;99.90;;;;;;5042302;28;20646;-68
2023/09/25 01:27:46;;;;;;;3.43;1.97;;;6.60;99.90;;;;;;5051618;28;20190;-68
2023/09/25 01:30:13;;;;;;;3.97;2.20;;;6.60;99.90;;;;;;5042873;28;20638;-69
2023/09/25 01:32:40;;;;;;;4.07;2.30;;;6.60;99.90;;;;;;5046897;28;20172;-68
2023/09/25 01:35:13;;;;;;;4.53;2.27;;;6.60;99.90;;;;;;5040219;28;20187;-68
2023/09/25 01:37:39;;;;;;;3.00;2.03;;;6.50;99.90;;;;;;5051655;28;20193;-68
2023/09/25 01:40:08;;;;;;;2.73;2.10;;;6.60;99.90;;;;;;5050707;28;20651;-69
2023/09/25 01:42:34;;;;;;;3.30;1.93;;;6.50;99.90;;;;;;5051542;28;20708;-69
2023/09/25 01:44:59;;;;;;;7.10;2.20;;;6.50;99.90;;;;;;5051541;28;20191;-68
2023/09/25 01:47:25;;;;;;;3.60;1.93;;;6.50;99.90;;;;;;5051123;28;20249;-68
2023/09/25 01:49:51;;;;;;;6.67;2.13;;;6.50;99.90;;;;;;5041408;28;20190;-68
2023/09/25 01:52:17;;;;;;;3.90;2.10;;;6.50;99.90;;;;;;5051225;28;20842;-68
2023/09/25 01:54:43;;;;;;;4.87;2.10;;;6.50;99.90;;;;;;5051254;28;20202;-68
2023/09/25 01:57:08;;;;;;;2.60;1.80;;;6.50;99.90;;;;;;5042723;28;20231;-69
2023/09/25 01:59:34;;;;;;;3.30;1.93;;;6.40;99.90;;;;;;5050559;28;20244;-68
2023/09/25 02:01:59;;;;;;;3.63;1.70;;;6.40;99.90;;;;;;5051264;28;20614;-69
2023/09/25 02:04:25;;;;;;;2.73;1.80;;;6.40;99.90;;;;;;5051047;28;20183;-69
2023/09/25 02:06:51;;;;;;;2.53;1.60;;;6.40;99.90;;;;;;5066303;28;20202;-69
2023/09/25 02:09:16;;;;;;;2.83;1.90;;;6.30;99.90;;;;;;5049946;28;20215;-68
2023/09/25 02:11:42;;;;;;;2.57;1.73;;;6.30;99.90;;;;;;5066361;28;20191;-69
2023/09/25 02:14:07;;;;;;;3.63;1.90;;;6.30;99.90;;;;;;5042529;28;20215;-68
2023/09/25 02:16:33;;;;;;;4.03;1.70;;;6.30;99.90;;;;;;5050805;28;20223;-69
2023/09/25 02:18:58;;;;;;;4.63;1.60;;;6.20;99.90;;;;;;5050085;28;20249;-69
2023/09/25 02:21:24;;;;;;;2.40;1.57;;;6.20;99.90;;;;;;5063343;28;20192;-68
2023/09/25 02:23:49;;;;;;;2.27;1.80;;;6.20;99.90;;;;;;5045136;28;20187;-69
2023/09/25 02:26:15;;;;;;;2.60;1.53;;;6.10;99.90;;;;;;5050479;28;20210;-69
2023/09/25 02:28:40;;;;;;;2.07;1.43;;;6.10;99.90;;;;;;5049801;28;20280;-68
2023/09/25 02:31:07;;;;;;;7.60;1.90;;;6.10;99.90;;;;;;5050496;28;20273;-68
2023/09/25 02:33:33;;;;;;;2.47;1.70;;;6.10;99.90;;;;;;5050603;28;20171;-68
2023/09/25 02:36:06;;;;;;;2.70;1.80;;;6.10;99.90;;;;;;5042270;28;20206;-68
2023/09/25 02:38:31;;;;;;;3.80;2.13;;;6.10;99.90;;;;;;5033756;28;20179;-69
2023/09/25 02:40:57;;;;;;;8.20;2.40;;;6.10;99.90;;;;;;5050525;28;20183;-69
2023/09/25 02:43:23;;;;;;;4.00;2.17;;;6.00;99.90;;;;;;5050383;28;20598;-70
2023/09/25 02:45:49;;;;;;;4.87;1.87;;;6.00;99.90;;;;;;5050297;28;20207;-69
2023/09/25 02:48:14;;;;;;;3.60;2.33;;;6.00;99.90;;;;;;5049368;28;20272;-69
2023/09/25 02:50:40;;;;;;;3.20;1.73;;;6.10;99.90;;;;;;5042085;28;20190;-69
2023/09/25 02:53:06;;;;;;;3.47;1.60;;;6.10;99.90;;;;;;5048641;28;20183;-69
2023/09/25 02:55:31;;;;;;;4.37;2.40;;;6.00;99.90;;;;;;5050249;28;20185;-69
2023/09/25 02:57:57;;;;;;;2.87;1.93;;;6.00;99.90;;;;;;5049578;28;20194;-68
2023/09/25 03:00:22;;;;;;;2.80;1.80;;;6.00;99.90;;;;;;5049966;28;20601;-68
2023/09/25 03:02:48;;;;;;;3.03;2.07;;;5.90;99.90;;;;;;5050248;28;20766;-69
2023/09/25 03:05:14;;;;;;;3.17;1.90;;;5.90;99.90;;;;;;5049644;28;20896;-69
2023/09/25 03:07:40;;;;;;;2.63;2.00;;;6.00;99.90;;;;;;5045144;28;20180;-68
2023/09/25 03:10:07;;;;;;;3.27;2.10;;;5.90;99.90;;;;;;5044628;28;20559;-68
2023/09/25 03:12:33;;;;;;;3.60;1.97;;;5.90;99.90;;;;;;5050108;28;20180;-68
2023/09/25 03:14:58;;;;;;;6.10;2.30;;;5.90;99.90;;;;;;5050081;28;20183;-69
2023/09/25 03:17:24;;;;;;;3.53;1.90;;;5.90;99.90;;;;;;5049629;28;20210;-68
2023/09/25 03:19:51;;;;;;;7.03;2.33;;;5.80;99.90;;;;;;5049361;28;20206;-68
2023/09/25 03:22:16;;;;;;;4.30;1.90;;;5.80;99.90;;;;;;5049625;28;20588;-69
2023/09/25 03:24:42;;;;;;;3.63;2.10;;;5.80;99.90;;;;;;5050162;28;20183;-69
2023/09/25 03:27:07;;;;;;;3.97;1.93;;;5.80;99.90;;;;;;5049478;28;20210;-69
2023/09/25 03:29:33;;;;;;;3.43;2.10;;;5.80;99.90;;;;;;5024696;28;20211;-68
2023/09/25 03:31:59;;;;;;;4.37;2.30;;;5.70;99.90;;;;;;5048431;28;20262;-68
2023/09/25 03:34:24;;;;;;;5.97;2.33;;;5.70;99.90;;;;;;5030915;28;20543;-69
2023/09/25 03:36:50;;;;;;;2.70;1.97;;;5.70;99.90;;;;;;5029656;28;20269;-69
2023/09/25 03:39:17;;;;;;;4.17;2.30;;;5.70;99.90;;;;;;5029206;28;20196;-69
2023/09/25 03:41:43;;;;;;;3.73;2.20;;;5.70;99.90;;;;;;5029916;28;20590;-69
2023/09/25 03:44:08;;;;;;;3.10;2.10;;;5.60;99.90;;;;;;5038426;28;20188;-69
2023/09/25 03:46:34;;;;;;;5.20;2.50;;;5.60;99.90;;;;;;5049841;28;20242;-69
2023/09/25 03:49:05;;;;;;;4.13;2.07;;;5.60;99.90;;;;;;5034010;28;20214;-68
2023/09/25 03:51:34;;;;;;;4.67;2.17;;;5.60;99.90;;;;;;5029542;28;20186;-68
2023/09/25 03:54:00;;;;;;;4.10;2.33;;;5.60;99.90;;;;;;5029985;28;20602;-69
2023/09/25 03:56:27;;;;;;;3.30;2.20;;;5.60;99.90;;;;;;5029626;28;20211;-69
2023/09/25 03:58:52;;;;;;;3.27;1.93;;;5.60;99.90;;;;;;5037485;28;20179;-69
2023/09/25 04:01:18;;;;;;;3.33;2.13;;;5.50;99.90;;;;;;5038018;28;20561;-69
2023/09/25 04:03:43;;;;;;;4.47;2.40;;;5.50;99.90;;;;;;5029598;28;20650;-68
2023/09/25 04:06:09;;;;;;;6.03;2.80;;;5.50;99.90;;;;;;5029637;28;20215;-69
2023/09/25 04:08:35;;;;;;;3.00;1.90;;;5.50;99.90;;;;;;5028974;28;20238;-69
2023/09/25 04:11:01;;;;;;;3.83;2.10;;;5.50;99.90;;;;;;5029708;28;20192;-68
2023/09/25 04:13:26;;;;;;;3.47;2.30;;;5.50;99.90;;;;;;5052159;28;20222;-68
2023/09/25 04:15:53;;;;;;;4.60;2.50;;;5.50;99.90;;;;;;5053099;28;20586;-69
2023/09/25 04:18:18;;;;;;;3.87;2.20;;;5.60;99.90;;;;;;5050565;28;20214;-70
2023/09/25 04:20:45;;;;;;;5.10;2.17;;;5.50;99.90;;;;;;5038413;28;20187;-68
2023/09/25 04:23:11;;;;;;;3.77;2.47;;;5.50;99.90;;;;;;5035740;28;20192;-68
2023/09/25 04:25:37;;;;;;;4.73;2.43;;;5.50;99.90;;;;;;5037357;28;20290;-69
2023/09/25 04:28:03;;;;;;;3.33;2.20;;;5.50;99.90;;;;;;5052172;28;20203;-69
2023/09/25 04:30:29;;;;;;;4.43;2.40;;;5.50;99.90;;;;;;5052753;28;20187;-69
2023/09/25 04:32:54;;;;;;;4.77;2.90;;;5.50;99.90;;;;;;5052800;28;20171;-69
2023/09/25 04:35:21;;;;;;;5.77;3.33;;;5.50;99.90;;;;;;5052523;28;20206;-68
2023/09/25 04:37:47;;;;;;;5.57;3.07;;;5.40;99.90;;;;;;5044462;28;20183;-69
2023/09/25 04:40:24;;;;;;;6.47;3.90;;;5.40;99.90;;;;;;5035688;28;20302;-69
2023/09/25 04:42:51;;;;;;;5.17;3.57;;;5.30;99.90;;;;;;5038606;28;20405;-69
2023/09/25 04:45:20;;;;;;;4.73;3.40;;;5.30;99.90;;;;;;5040880;28;20190;-69
2023/09/25 04:47:47;;;;;;;7.17;3.40;;;5.40;99.90;;;;;;5040809;28;20175;-69
2023/09/25 04:50:13;;;;;;;5.47;3.30;;;5.30;99.90;;;;;;5040292;28;20178;-68
2023/09/25 04:52:40;;;;;;;4.77;3.07;;;5.40;99.90;;;;;;5040820;28;20685;-69
2023/09/25 04:55:07;;;;;;;5.53;3.40;;;5.40;99.90;;;;;;5032713;28;20184;-69
2023/09/25 04:57:33;;;;;;;3.97;2.83;;;5.40;99.90;;;;;;5040771;28;20598;-69
2023/09/25 05:00:05;;;;;;;5.77;2.77;;;5.40;99.90;;;;;;5031894;28;20214;-68
2023/09/25 05:02:30;;;;;;;3.90;2.73;;;5.30;99.90;;;;;;5032422;28;20192;-68
2023/09/25 05:04:56;;;;;;;5.40;2.73;;;5.30;99.90;;;;;;5047794;28;20703;-70
2023/09/25 05:07:21;;;;;;;6.37;4.37;;;5.30;99.90;;;;;;5032073;28;20261;-69
2023/09/25 05:09:47;;;;;;;6.90;4.33;;;5.30;99.90;;;;;;5031296;28;20211;-69
2023/09/25 05:12:12;;;;;;;5.63;2.90;;;5.20;99.90;;;;;;5030424;28;20184;-69
2023/09/25 05:14:39;;;;;;;5.63;2.57;;;5.30;99.90;;;;;;5032188;28;20318;-69
2023/09/25 05:17:04;;;;;;;4.00;2.47;;;5.30;99.90;;;;;;5031240;28;20694;-69
2023/09/25 05:19:30;;;;;;;6.37;3.40;;;5.30;99.90;;;;;;5030925;28;20208;-69
2023/09/25 05:21:55;;;;;;;11.93;3.50;;;5.30;99.90;;;;;;5031099;28;20192;-69
2023/09/25 05:24:21;;;;;;;5.77;3.40;;;5.20;99.90;;;;;;5038121;28;20317;-69
2023/09/25 05:26:46;;;;;;;10.80;3.80;;;5.30;99.90;;;;;;5031030;28;20262;-68
2023/09/25 05:29:12;;;;;;;7.07;3.17;;;5.30;99.90;;;;;;5046771;28;20515;-68
2023/09/25 05:31:37;;;;;;;6.87;3.30;;;5.40;99.90;;;;;;5039522;28;20179;-68
2023/09/25 05:34:03;;;;;;;6.27;2.87;;;5.40;99.90;;;;;;5031273;28;20561;-68
2023/09/25 05:36:29;;;;;;;6.80;3.60;;;5.50;99.90;;;;;;5031208;28;20647;-68
2023/09/25 05:38:55;;;;;;;6.10;3.60;;;5.60;99.90;;;;;;5036858;28;20604;-68
2023/09/25 05:41:21;;;;;;;6.27;3.70;;;5.70;99.90;;;;;;5032464;28;20180;-68
2023/09/25 05:43:46;;;;;;;6.67;4.03;;;5.80;99.90;;;;;;5036533;28;20666;-68
2023/09/25 05:46:12;;;;;;;8.70;3.70;;;5.80;99.90;;;;;;5041827;28;20257;-68
2023/09/25 05:48:39;;;;;;;5.03;3.00;;;5.90;99.90;;;;;;5038491;28;20804;-68
2023/09/25 05:51:04;;;;;;;9.03;3.33;;;5.90;99.90;;;;;;5030912;28;20176;-68
2023/09/25 05:53:30;;;;;;;9.90;3.67;;;5.90;99.90;;;;;;5030722;28;20180;-70
2023/09/25 05:55:56;;;;;;;12.63;3.73;;;6.10;99.90;;;;;;5038880;28;20215;-69
2023/09/25 05:58:22;;;;;;;7.60;3.50;;;6.30;99.90;;;;;;5038158;28;20180;-69
2023/09/25 06:00:47;;;;;;;12.10;4.53;;;6.30;99.90;;;;;;5030782;28;20270;-69
2023/09/25 06:03:13;;;;;;;7.27;4.20;;;6.40;99.90;;;;;;5039038;28;20187;-68
2023/09/25 06:05:40;;;;;;;6.70;3.70;;;6.60;99.90;;;;;;5030518;28;20596;-68
2023/09/25 06:08:06;;;;;;;7.73;4.03;;;6.80;99.90;;;;;;5037775;28;20211;-68
2023/09/25 06:10:32;;;;;;;7.63;3.73;;;7.10;99.90;;;;;;5030717;28;20229;-69
2023/09/25 06:12:59;;;;;;;6.73;2.50;;;7.20;99.90;;;;;;5037347;28;20182;-69
2023/09/25 06:15:26;;;;;;;7.87;3.80;;;7.40;99.90;;;;;;5039461;28;20202;-69
2023/09/25 06:17:52;;;;;;;7.50;3.80;;;7.60;99.90;;;;;;5030281;28;20575;-69
2023/09/25 06:20:20;;;;;;;6.60;3.50;;;7.80;99.90;;;;;;5038060;28;20185;-69
2023/09/25 06:22:46;;;;;;;11.23;3.90;;;7.80;99.90;;;;;;5035535;28;20260;-70
2023/09/25 06:25:16;;;;;;;10.30;3.90;;;7.90;99.90;;;;;;5041299;28;20558;-68
2023/09/25 06:27:44;;;;;;;8.27;4.20;;;7.90;99.90;;;;;;5038231;28;20222;-69
2023/09/25 06:30:13;;;;;;;7.27;3.87;;;8.10;99.90;;;;;;5029675;28;20183;-68
2023/09/25 06:32:39;;;;;;;15.53;4.50;;;8.30;99.90;;;;;;5030157;28;20183;-68
2023/09/25 06:35:08;;;;;;;22.30;5.03;;;8.20;99.90;;;;;;5029752;28;20688;-68
2023/09/25 06:37:34;;;;;;;8.90;4.17;;;8.30;99.90;;;;;;5041766;28;20269;-69
2023/09/25 06:40:00;;;;;;;16.37;5.00;;;8.30;99.90;;;;;;5033902;28;20179;-68
2023/09/25 06:42:26;;;;;;;7.10;3.87;;;8.20;99.90;;;;;;5029873;28;20651;-69
2023/09/25 06:44:52;;;;;;;11.93;4.80;;;8.10;99.90;;;;;;5028510;28;20179;-69
2023/09/25 06:47:17;;;;;;;10.53;4.27;;;8.20;99.90;;;;;;5029480;28;20210;-69
2023/09/25 06:49:43;;;;;;;9.70;4.50;;;8.30;99.90;;;;;;5029006;28;20298;-69
2023/09/25 06:52:11;;;;;;;9.70;4.50;;;8.40;99.90;;;;;;5029778;28;20225;-68
2023/09/25 06:54:37;;;;;;;7.53;4.30;;;8.50;99.90;;;;;;5045829;28;20734;-69
2023/09/25 06:57:02;;;;;;;8.37;4.40;;;8.50;99.90;;;;;;5029740;28;20346;-69
2023/09/25 06:59:29;;;;;;;10.40;4.17;;;8.50;99.90;;;;;;5036995;28;20558;-68
2023/09/25 07:01:55;;;;;;;8.77;4.23;;;8.50;99.90;;;;;;5029003;28;20553;-68
2023/09/25 07:04:21;;;;;;;8.07;4.53;;;8.70;99.90;;;;;;5039435;28;20203;-68
2023/09/25 07:06:46;;;;;;;8.40;3.90;;;8.90;99.90;;;;;;5044223;28;20614;-68
2023/09/25 07:09:14;;;;;;;10.90;4.20;;;9.10;99.90;;;;;;5037671;28;20570;-69
2023/09/25 07:11:40;;;;;;;12.30;4.17;;;9.30;99.90;;;;;;5041261;28;20659;-69
2023/09/25 07:14:05;;;;;;;8.57;3.80;;;9.60;99.90;;;;;;5033503;28;20278;-68
2023/09/25 07:16:31;;;;;;;6.77;3.47;;;9.80;99.90;;;;;;5028025;28;20199;-69
2023/09/25 07:18:57;;;;;;;6.53;3.37;;;10.10;99.90;;;;;;5028883;28;20749;-69
2023/09/25 07:21:23;;;;;;;7.20;4.17;;;10.40;99.90;;;;;;5029358;28;20211;-68
2023/09/25 07:23:51;;;;;;;12.57;3.97;;;10.60;99.90;;;;;;5029527;28;20254;-69
2023/09/25 07:26:17;;;;;;;7.23;3.97;;;10.90;99.90;;;;;;5029327;28;20215;-68
2023/09/25 07:28:47;;;;;;;8.50;4.40;;;11.20;99.90;;;;;;5033588;28;20210;-69
2023/09/25 07:31:18;;;;;;;7.10;3.90;;;11.60;99.90;;;;;;5032109;28;20198;-69
2023/09/25 07:33:44;;;;;;;8.13;3.63;;;12.10;99.90;;;;;;5037662;28;20171;-69
2023/09/25 07:36:10;;;;;;;6.30;3.40;;;12.60;99.90;;;;;;5029317;28;20594;-69
2023/09/25 07:38:35;;;;;;;6.87;2.80;;;13.00;99.90;;;;;;5032286;28;20232;-69
2023/09/25 07:41:01;;;;;;;4.03;2.20;;;13.40;99.90;;;;;;5033908;28;20188;-69
2023/09/25 07:43:29;;;;;;;4.60;2.33;;;13.90;99.90;;;;;;5029317;28;20215;-69
2023/09/25 07:45:55;;;;;;;3.57;2.13;;;14.20;99.90;;;;;;5036091;28;20211;-69
2023/09/25 07:48:21;;;;;;;4.47;2.33;;;14.60;99.90;;;;;;5032117;28;20203;-69
2023/09/25 07:50:47;;;;;;;5.93;2.00;;;15.00;99.90;;;;;;5036721;28;20191;-69
2023/09/25 07:53:13;;;;;;;4.20;2.23;;;15.20;99.90;;;;;;5038292;28;20593;-69
2023/09/25 07:55:39;;;;;;;5.60;2.60;;;15.70;99.90;;;;;;5036524;28;20206;-69
2023/09/25 07:58:04;;;;;;;5.37;2.67;;;15.70;99.90;;;;;;5036542;28;20179;-68
2023/09/25 08:00:44;;;;;;;6.67;2.80;;;15.60;99.90;;;;;;5032839;28;20207;-69
2023/09/25 08:03:15;;;;;;;6.13;2.43;;;15.60;99.90;;;;;;5032939;28;20197;-69
2023/09/25 08:05:41;;;;;;;4.53;2.77;;;15.70;99.90;;;;;;5041115;28;20195;-69
2023/09/25 08:08:10;;;;;;;3.60;2.00;;;15.90;99.90;;;;;;5040392;28;20208;-69
2023/09/25 08:10:36;;;;;;;6.63;2.43;;;16.20;99.90;;;;;;5032893;28;20394;-69
2023/09/25 08:13:02;;;;;;;3.53;2.30;;;16.50;99.90;;;;;;5040269;28;20215;-69
2023/09/25 08:15:28;;;;;;;5.43;2.30;;;16.70;99.90;;;;;;5033254;28;20188;-69
2023/09/25 08:17:53;;;;;;;7.17;2.40;;;16.80;99.90;;;;;;5032335;28;20242;-69
2023/09/25 08:20:22;;;;;;;8.53;2.50;;;16.90;99.90;;;;;;5040321;28;20655;-69
2023/09/25 08:22:50;;;;;;;7.77;2.30;;;17.10;99.90;;;;;;5037752;28;20191;-69
2023/09/25 08:25:16;;;;;;;7.50;2.70;;;17.30;99.90;;;;;;5034958;28;20647;-69
2023/09/25 08:27:42;;;;;;;6.50;2.20;;;17.60;99.90;;;;;;5037092;28;20278;-69
2023/09/25 08:30:08;;;;;;;4.73;2.10;;;17.80;99.90;;;;;;5035660;28;20566;-68
2023/09/25 08:32:34;;;;;;;5.07;2.10;;;18.20;99.90;;;;;;5032440;28;20210;-69
2023/09/25 08:35:00;;;;;;;4.27;1.90;;;18.30;99.90;;;;;;5041022;28;20586;-69
2023/09/25 08:37:26;;;;;;;4.93;1.70;;;18.50;99.90;;;;;;5031932;28;20215;-69
2023/09/25 08:39:52;;;;;;;5.13;2.00;;;18.80;99.90;;;;;;5031725;28;20201;-70
2023/09/25 08:42:24;;;;;;;5.57;1.90;;;18.90;99.90;;;;;;5032237;28;20184;-69
2023/09/25 08:44:56;;;;;;;4.53;1.90;;;18.90;99.90;;;;;;5032438;28;20233;-69
2023/09/25 08:47:22;;;;;;;3.93;2.10;;;19.00;99.90;;;;;;5047093;28;20256;-70
2023/09/25 08:49:52;;;;;;;4.30;1.90;;;19.30;99.90;;;;;;5031776;28;20230;-69
2023/09/25 08:52:21;;;;;;;192.60;108.67;;;19.60;99.90;;;;;;5031880;28;20180;-69
2023/09/25 08:54:51;;;;;;;25.70;11.77;;;19.90;99.90;;;;;;5037189;28;20237;-69
2023/09/25 08:57:17;;;;;;;5.67;3.40;;;20.40;99.90;;;;;;5033045;28;20200;-70
2023/09/25 08:59:47;;;;;;;22.40;11.33;;;20.70;99.90;;;;;;5044130;28;20270;-69
2023/09/25 09:02:13;;;;;;;89.10;42.77;;;21.10;99.90;;;;;;5042721;28;20191;-69
2023/09/25 09:04:39;;;;;;;9.30;4.57;;;21.30;99.90;;;;;;5031886;28;20184;-68
2023/09/25 09:07:06;;;;;;;73.13;40.40;;;21.50;99.90;;;;;;5040339;28;20210;-69
2023/09/25 09:09:32;;;;;;;66.10;35.80;;;21.70;99.90;;;;;;5039135;28;20262;-69
2023/09/25 09:11:58;;;;;;;46.07;22.27;;;21.50;99.90;;;;;;5038316;28;20270;-69
2023/09/25 09:14:41;;;;;;;15.03;7.87;;;21.40;99.90;;;;;;5033025;28;20536;-69
2023/09/25 09:17:09;;;;;;;46.23;21.97;;;21.10;99.90;;;;;;5031514;28;20250;-69
2023/09/25 09:19:51;;;;;;;7.63;4.90;;;21.10;99.90;;;;;;5030625;28;20191;-69
2023/09/25 09:22:18;;;;;;;14.33;8.83;;;21.40;99.90;;;;;;5032405;28;20196;-69
2023/09/25 09:24:44;;;;;;;11.67;2.50;;;21.90;99.90;;;;;;5043130;28;20172;-68
2023/09/25 09:27:11;;;;;;;4.67;1.33;;;21.70;99.90;;;;;;5034806;28;20210;-69
2023/09/25 09:29:41;;;;;;;4.03;1.70;;;21.70;99.90;;;;;;5022807;28;20285;-69
2023/09/25 09:32:08;;;;;;;2.93;1.50;;;22.10;99.90;;;;;;5039293;28;20184;-69
2023/09/25 09:34:35;;;;;;;5.00;1.50;;;22.40;99.90;;;;;;5051047;28;20647;-69
2023/09/25 09:37:01;;;;;;;4.03;1.37;;;22.90;99.90;;;;;;5035615;28;20208;-69
2023/09/25 09:39:34;;;;;;;2.83;1.33;;;23.10;99.90;;;;;;5047147;28;20199;-69
2023/09/25 09:42:03;;;;;;;5.90;1.23;;;23.20;99.90;;;;;;5039369;28;20207;-69
2023/09/25 09:44:29;;;;;;;2.50;1.27;;;24.20;99.90;;;;;;5030893;28;20186;-70
2023/09/25 09:46:55;;;;;;;1.83;1.10;;;24.80;99.90;;;;;;5031047;28;20258;-69
2023/09/25 09:49:23;;;;;;;5.27;1.20;;;24.70;99.90;;;;;;5031683;28;20215;-69
2023/09/25 09:51:50;;;;;;;2.20;1.30;;;24.20;99.90;;;;;;5037269;28;20181;-68
2023/09/25 09:54:18;;;;;;;4.13;1.30;;;23.80;99.90;;;;;;5031399;28;20201;-69
2023/09/25 09:56:47;;;;;;;4.13;1.33;;;23.70;99.90;;;;;;5036841;28;20733;-69
2023/09/25 09:59:14;;;;;;;2.67;1.00;;;24.20;99.90;;;;;;5053022;28;20520;-69
2023/09/25 10:01:47;;;;;;;3.10;1.40;;;24.60;99.90;;;;;;5030674;28;20194;-69
2023/09/25 10:04:15;;;;;;;3.07;1.37;;;24.90;99.90;;;;;;5030452;28;20273;-69
2023/09/25 10:06:59;;;;;;;3.83;1.50;;;25.60;99.90;;;;;;5037165;28;20291;-69
2023/09/25 10:09:26;;;;;;;2.93;1.33;;;25.10;99.90;;;;;;5030798;28;20713;-69
2023/09/25 10:11:54;;;;;;;3.73;1.10;;;25.00;99.90;;;;;;5044920;28;20172;-70
2023/09/25 10:14:22;;;;;;;2.80;1.43;;;24.90;99.90;;;;;;5031692;28;20279;-69
2023/09/25 10:17:02;;;;;;;1.90;0.87;;;25.00;99.90;;;;;;5036915;28;20196;-69
2023/09/25 10:19:40;;;;;;;3.23;1.40;;;25.00;99.90;;;;;;5040371;28;20195;-69
2023/09/25 10:22:08;;;;;;;3.50;1.33;;;24.60;99.90;;;;;;5042709;28;20179;-69
2023/09/25 10:24:34;;;;;;;2.97;1.37;;;24.80;99.90;;;;;;5041722;28;20274;-69
2023/09/25 10:27:00;;;;;;;3.80;1.20;;;25.10;99.90;;;;;;5035088;28;20338;-69
2023/09/25 10:29:27;;;;;;;3.27;1.20;;;25.70;99.90;;;;;;5031431;28;20227;-69
2023/09/25 10:31:53;;;;;;;3.93;1.20;;;25.80;99.90;;;;;;5035864;28;20175;-69
2023/09/25 10:34:22;;;;;;;3.23;1.30;;;25.90;99.90;;;;;;5039370;28;20190;-69
2023/09/25 10:36:50;;;;;;;4.07;1.30;;;25.40;99.90;;;;;;5044964;28;20346;-69
2023/09/25 10:39:18;;;;;;;4.03;1.33;;;25.30;99.90;;;;;;5037395;28;20267;-69
2023/09/25 10:41:45;;;;;;;4.30;1.40;;;25.50;99.90;;;;;;5038185;28;20184;-69
2023/09/25 10:44:12;;;;;;;4.33;1.23;;;25.40;99.90;;;;;;5030241;28;20536;-69
2023/09/25 10:46:38;;;;;;;3.70;1.13;;;25.40;99.90;;;;;;5029933;28;20195;-69
2023/09/25 10:49:06;;;;;;;2.00;1.20;;;25.20;99.90;;;;;;5044776;28;20245;-68
2023/09/25 10:51:32;;;;;;;3.27;1.20;;;25.10;99.90;;;;;;5033260;28;20178;-69
2023/09/25 10:53:57;;;;;;;2.33;1.30;;;25.00;99.90;;;;;;5043339;28;20172;-68
2023/09/25 10:56:23;;;;;;;3.33;1.33;;;24.80;99.90;;;;;;5046746;28;20206;-69
2023/09/25 10:58:53;;;;;;;5.10;1.40;;;24.70;99.90;;;;;;5044048;28;20196;-68
2023/09/25 11:01:29;;;;;;;4.13;1.23;;;24.40;99.90;;;;;;5038907;28;20231;-68
2023/09/25 11:03:57;;;;;;;4.00;1.40;;;24.30;99.90;;;;;;5035524;28;20268;-68
2023/09/25 11:06:23;;;;;;;3.57;1.53;;;23.80;99.90;;;;;;5037861;28;20555;-69
2023/09/25 11:08:57;;;;;;;4.03;1.20;;;23.80;99.90;;;;;;5037079;28;20191;-69
2023/09/25 11:11:23;;;;;;;2.77;1.53;;;23.70;99.90;;;;;;5031037;28;20176;-68
2023/09/25 11:13:49;;;;;;;2.90;1.47;;;23.70;99.90;;;;;;5049624;28;20542;-68
2023/09/25 11:16:14;;;;;;;2.23;1.23;;;23.80;99.90;;;;;;5032437;28;20200;-68
2023/09/25 11:18:41;;;;;;;2.40;1.20;;;23.50;99.90;;;;;;5028915;28;20679;-68
2023/09/25 11:21:10;;;;;;;1.50;1.10;;;23.40;99.90;;;;;;5038665;28;20188;-68
2023/09/25 11:23:37;;;;;;;4.93;1.40;;;23.50;99.90;;;;;;5033363;28;20562;-68
2023/09/25 11:26:03;;;;;;;2.23;1.20;;;23.40;99.90;;;;;;5033511;28;20204;-68
2023/09/25 11:28:30;;;;;;;2.40;1.40;;;23.80;99.90;;;;;;5040899;28;20641;-67
2023/09/25 11:30:56;;;;;;;3.97;1.50;;;24.00;99.90;;;;;;5047907;28;20227;-68
2023/09/25 11:33:23;;;;;;;3.27;1.43;;;24.00;99.90;;;;;;5035537;28;20262;-69
2023/09/25 11:35:52;;;;;;;3.10;1.37;;;23.90;99.90;;;;;;5033338;28;20213;-68
2023/09/25 11:38:23;;;;;;;4.50;1.20;;;24.00;99.90;;;;;;5033446;28;20194;-69
2023/09/25 11:40:50;;;;;;;3.40;1.40;;;23.70;99.90;;;;;;5048126;28;20220;-69
2023/09/25 11:43:16;;;;;;;2.60;1.30;;;24.00;99.90;;;;;;5042161;28;20201;-68
2023/09/25 11:45:43;;;;;;;2.67;1.27;;;23.70;99.90;;;;;;5048832;28;20254;-68
2023/09/25 11:48:10;;;;;;;3.50;1.30;;;23.70;99.90;;;;;;5041010;28;20180;-68
2023/09/25 11:50:35;;;;;;;3.43;1.50;;;23.80;99.90;;;;;;5032675;28;20178;-69
2023/09/25 11:53:01;;;;;;;4.07;1.30;;;23.70;99.90;;;;;;5028414;28;20190;-68
2023/09/25 11:55:28;;;;;;;2.87;1.20;;;23.50;99.90;;;;;;5038928;28;20594;-68
2023/09/25 11:57:54;;;;;;;3.47;1.20;;;23.60;99.90;;;;;;5033200;28;20212;-68
2023/09/25 12:00:20;;;;;;;4.67;1.30;;;23.60;99.90;;;;;;5032427;28;20227;-68
2023/09/25 12:02:48;;;;;;;3.40;1.30;;;23.70;99.90;;;;;;5033030;28;20664;-69
2023/09/25 12:05:17;;;;;;;3.17;1.47;;;23.90;99.90;;;;;;5032852;28;20194;-69
2023/09/25 12:07:44;;;;;;;2.00;1.20;;;23.90;99.90;;;;;;5036958;28;20233;-68
2023/09/25 12:10:17;;;;;;;3.27;1.30;;;23.90;99.90;;;;;;5035948;28;20265;-69
2023/09/25 12:12:44;;;;;;;2.93;1.33;;;23.90;99.90;;;;;;5032774;28;20210;-68
2023/09/25 12:15:12;;;;;;;2.70;1.17;;;24.20;99.90;;;;;;5032938;28;20214;-68
2023/09/25 12:17:38;;;;;;;3.27;1.40;;;24.60;99.90;;;;;;5036143;28;20547;-69
2023/09/25 12:20:12;;;;;;;6.37;1.70;;;24.70;99.90;;;;;;5052163;28;20186;-69
2023/09/25 12:22:41;;;;;;;3.37;1.23;;;25.00;99.90;;;;;;5032726;28;20212;-68
2023/09/25 12:25:12;;;;;;;3.40;1.47;;;25.10;99.90;;;;;;5032752;28;20637;-69
2023/09/25 12:27:39;;;;;;;2.97;1.43;;;25.00;99.90;;;;;;5024365;28;20203;-69
2023/09/25 12:30:07;;;;;;;2.80;1.30;;;24.90;99.90;;;;;;5032346;28;20254;-68
2023/09/25 12:32:33;;;;;;;3.30;1.40;;;24.80;99.90;;;;;;5042949;28;20241;-68
2023/09/25 12:34:59;;;;;;;3.53;1.30;;;24.80;99.90;;;;;;5037808;28;20248;-69
2023/09/25 12:37:25;;;;;;;1.40;1.00;;;24.40;99.90;;;;;;5048440;28;20281;-68
2023/09/25 12:39:51;;;;;;;2.57;1.30;;;24.50;99.90;;;;;;5031812;28;20334;-69
2023/09/25 12:42:17;;;;;;;3.83;1.27;;;24.30;99.90;;;;;;5040341;28;20195;-68
2023/09/25 12:44:42;;;;;;;4.10;1.50;;;24.40;99.90;;;;;;5040422;28;20195;-68
2023/09/25 12:47:08;;;;;;;3.07;1.40;;;24.50;99.90;;;;;;5032215;28;20227;-68
2023/09/25 12:49:33;;;;;;;2.40;1.20;;;24.60;99.90;;;;;;5039606;28;20297;-68